Dyess AFB, Texas
Current Conditions -  °F | °C
As of 9:58 AM on Wednesday 28 Jan 2015 (Local Time) from KDYS Reporting Station
Clear Clear  
Wind Chill: 69°   Ceiling: Unl
Heat Index: 69°   Visibility: 10mi
Dew Point: 40°   Wind: 15mph
Humidity: 34%   Direction: 190°S
Pressure: 30.11"   Gusts: NA
Location:  32.42°N, 99.82°W
Report Text: KDYS 281558Z 19013KT 10SM CLR 21/05 A3011 RMK AO2A SLP177 WND DATA ESTMD T02080045 $
Loading
Personal Weather Stations






























Interactive Weather Map New forecast layout! Learn more

10-Day Weather Forecast

Advertisements
Track Severe Weather on mobile